Osterdock, Iowa
Current Conditions -  °F | °C
As of 5:55 AM on Friday 28 Nov 2014 (Local Time) from KPDC Reporting Station
Scattered Clouds Scattered Clouds  
Wind Chill:   Ceiling: Unl
Heat Index: 17°   Visibility: 10mi
Dew Point:   Wind: 9mph
Humidity: 72%   Direction: 120°ESE
Pressure: 30.16"   Gusts: NA
Location:  42.6454°N, 91.192°W
Report Text: KPDC 281155Z AUTO 12008KT 10SM SCT120 M09/M13 A3016 RMK AO2 T10861129 11086 21100
Loading
Personal Weather Stations






























Interactive Weather Map New forecast layout! Learn more

10-Day Weather Forecast

Advertisements
Track Severe Weather on mobile